createdAt,value
2019-04-23T00:03:54.801Z,69.85
2019-04-23T00:06:33.778Z,64.42
2019-04-23T00:09:15.610Z,69.11
2019-04-23T00:11:41.601Z,70.18
2019-04-23T00:14:15.157Z,68.33
2019-04-23T00:16:44.796Z,66.77
2019-04-23T00:19:19.839Z,67.99
2019-04-23T00:22:17.934Z,67.94
2019-04-23T00:25:11.941Z,69.02
2019-04-23T00:27:29.167Z,69.68
2019-04-23T00:32:28.601Z,68.88
2019-04-23T00:34:59.587Z,68.08
2019-04-23T00:40:03.246Z,67.62
2019-04-23T00:42:41.493Z,68.76
2019-04-23T00:45:23.016Z,69.85
2019-04-23T00:53:12.055Z,71.75
2019-04-23T00:55:29.888Z,71.52
2019-04-23T00:58:08.618Z,71.87
2019-04-23T01:00:43.558Z,71.37
2019-04-23T01:03:12.521Z,72.23
2019-04-23T01:06:01.823Z,71.45
2019-04-23T01:08:20.152Z,71.44
2019-04-23T01:11:08.214Z,70.01
2019-04-23T01:13:44.289Z,71.04
2019-04-23T01:16:11.891Z,70.71
2019-04-23T01:21:11.683Z,69.89
2019-04-23T01:23:58.674Z,69.55
2019-04-23T01:26:50.356Z,70.17
2019-04-23T01:29:28.286Z,70.29
2019-04-23T01:32:02.303Z,70.47
2019-04-23T01:34:44.003Z,72.28
2019-04-23T01:37:09.219Z,73.04
2019-04-23T01:39:49.970Z,73.23
2019-04-23T01:42:22.231Z,73.52
2019-04-23T01:45:01.249Z,73.20
2019-04-23T01:47:26.712Z,73.52
2019-04-23T01:50:09.664Z,73.74
2019-04-23T01:52:38.101Z,73.59
2019-04-23T01:55:18.370Z,73.60
2019-04-23T01:57:47.194Z,73.76
2019-04-23T02:02:58.993Z,73.23
2019-04-23T02:07:56.844Z,73.26
2019-04-23T02:10:40.876Z,73.01
2019-04-23T02:13:12.088Z,73.04
2019-04-23T02:20:47.938Z,73.02
2019-04-23T02:23:39.543Z,73.34
2019-04-23T02:26:10.961Z,72.37
2019-04-23T02:28:54.605Z,71.82
2019-04-23T02:34:00.624Z,72.32
2019-04-23T02:36:31.712Z,72.18
2019-04-23T02:39:22.490Z,71.99
2019-04-23T02:46:55.921Z,71.15
2019-04-23T02:52:11.186Z,72.58
2019-04-23T02:57:01.381Z,73.94
2019-04-23T03:00:05.608Z,74.58
2019-04-23T03:02:42.869Z,75.16
2019-04-23T03:10:10.117Z,74.30
2019-04-23T03:12:37.982Z,72.85
2019-04-23T03:21:31.275Z,73.00
2019-04-23T03:39:56.678Z,72.50
2019-04-23T04:00:33.350Z,71.91
2019-04-23T04:08:13.256Z,71.66
2019-04-23T04:10:44.728Z,73.71
2019-04-23T04:13:22.814Z,73.70
2019-04-23T04:15:55.735Z,74.19
2019-04-23T04:21:08.487Z,73.45
2019-04-23T04:23:41.034Z,73.51
2019-04-23T04:26:04.486Z,73.43
2019-04-23T04:28:47.188Z,72.85
2019-04-23T04:31:18.749Z,73.61
2019-04-23T04:44:17.050Z,72.36
2019-04-23T04:46:39.787Z,71.87
2019-04-23T04:49:11.900Z,72.76
2019-04-23T04:54:23.062Z,72.62
2019-04-23T04:56:51.404Z,71.77
2019-04-23T04:59:27.836Z,71.42
2019-04-23T05:02:09.431Z,71.34
2019-04-23T05:07:11.222Z,72.42
2019-04-23T05:09:48.529Z,72.71
2019-04-23T05:12:22.021Z,72.36
2019-04-23T05:14:56.923Z,72.29
2019-04-23T05:17:42.445Z,72.54
2019-04-23T05:20:05.103Z,72.68
2019-04-23T05:25:05.493Z,73.31
2019-04-23T05:27:53.557Z,72.94
2019-04-23T05:30:29.776Z,73.21
2019-04-23T05:32:57.960Z,72.50
2019-04-23T05:43:04.336Z,71.83
2019-04-23T05:48:19.769Z,71.47
2019-04-23T05:50:59.187Z,73.13
2019-04-23T05:56:03.573Z,73.08
2019-04-23T05:58:38.664Z,71.95
2019-04-23T06:09:10.910Z,71.28
2019-04-23T06:11:56.968Z,72.63
2019-04-23T06:19:19.008Z,72.24
2019-04-23T06:22:07.436Z,73.16
2019-04-23T06:32:06.101Z,72.19
2019-04-23T06:34:50.294Z,70.71
2019-04-23T06:37:16.091Z,71.00
2019-04-23T06:39:48.413Z,70.17
2019-04-23T06:42:19.424Z,70.59
2019-04-23T06:44:56.153Z,70.36
2019-04-23T06:47:29.285Z,71.36
2019-04-23T06:50:25.673Z,71.25
2019-04-23T06:52:31.548Z,71.26
2019-04-23T06:55:14.915Z,70.66
2019-04-23T06:57:52.201Z,69.17
2019-04-23T07:00:29.452Z,68.97
2019-04-23T07:03:00.316Z,68.41
2019-04-23T07:06:03.753Z,67.71
2019-04-23T07:08:34.465Z,62.52
2019-04-23T07:11:11.836Z,61.14
2019-04-23T07:13:41.321Z,61.87
2019-04-23T07:16:12.883Z,63.87
2019-04-23T07:18:41.137Z,64.76
2019-04-23T07:21:17.913Z,67.24
2019-04-23T07:31:37.922Z,70.35
2019-04-23T07:39:27.487Z,70.86
2019-04-23T07:44:56.380Z,72.46
2019-04-23T07:48:13.392Z,71.67
2019-04-23T07:55:48.178Z,68.75
2019-04-23T07:58:23.784Z,68.96
2019-04-23T08:03:45.119Z,69.21
2019-04-23T08:06:00.566Z,68.72
2019-04-23T08:08:39.858Z,69.10
2019-04-23T08:11:30.789Z,68.83
2019-04-23T08:16:32.895Z,69.84
2019-04-23T08:18:55.621Z,70.06
2019-04-23T08:21:29.602Z,69.35
2019-04-23T08:24:08.680Z,68.11
2019-04-23T08:27:04.276Z,71.63
2019-04-23T08:29:28.092Z,71.71
2019-04-23T08:32:12.224Z,71.26
2019-04-23T08:34:48.254Z,70.38
2019-04-23T08:37:24.572Z,66.88
2019-04-23T08:39:46.606Z,64.86
2019-04-23T08:42:42.736Z,63.17
2019-04-23T08:51:19.441Z,64.99
2019-04-23T08:56:11.428Z,66.42
2019-04-23T08:58:39.633Z,65.99
2019-04-23T09:01:17.286Z,65.63
2019-04-23T09:03:46.286Z,67.54
2019-04-23T09:06:24.501Z,66.33
2019-04-23T09:08:56.590Z,64.72
2019-04-23T09:11:41.739Z,65.29
2019-04-23T09:14:03.568Z,64.44
2019-04-23T09:16:46.812Z,61.56
2019-04-23T09:19:16.025Z,59.99
2019-04-23T09:21:56.456Z,59.76
2019-04-23T09:24:22.298Z,57.61
2019-04-23T09:27:00.134Z,56.61
2019-04-23T09:29:40.560Z,57.63
2019-04-23T09:35:06.225Z,53.00
2019-04-23T09:37:59.604Z,54.69
2019-04-23T09:44:23.214Z,50.60
2019-04-23T09:47:01.924Z,52.17
2019-04-23T09:49:35.032Z,50.79
2019-04-23T09:52:07.286Z,53.17
2019-04-23T09:54:45.903Z,52.05
2019-04-23T09:57:29.672Z,52.09
2019-04-23T10:00:10.591Z,53.80
2019-04-23T10:02:13.643Z,53.12
2019-04-23T10:04:46.318Z,53.00
2019-04-23T10:07:16.215Z,54.79
2019-04-23T10:09:38.319Z,54.23
2019-04-23T10:12:13.085Z,52.94
2019-04-23T10:14:53.880Z,54.51
2019-04-23T10:17:20.250Z,52.57
2019-04-23T10:19:55.387Z,53.35
2019-04-23T10:22:27.284Z,53.53
2019-04-23T10:24:59.488Z,52.28
2019-04-23T10:27:32.873Z,51.13
2019-04-23T10:30:05.965Z,52.69
2019-04-23T10:32:40.129Z,52.31
2019-04-23T10:35:22.382Z,57.09
2019-04-23T10:37:53.965Z,55.36
2019-04-23T10:40:28.131Z,56.49
2019-04-23T10:42:57.904Z,57.00
2019-04-23T10:46:15.389Z,57.75
2019-04-23T10:49:34.784Z,58.50
2019-04-23T10:52:07.405Z,59.84
2019-04-23T10:54:34.261Z,63.83
2019-04-23T10:57:07.386Z,63.89
2019-04-23T11:10:03.479Z,62.10
2019-04-23T11:13:12.103Z,62.37
2019-04-23T11:18:34.913Z,61.41
2019-04-23T11:21:00.642Z,60.97
2019-04-23T11:23:29.079Z,60.46
2019-04-23T11:42:23.431Z,58.02
2019-04-23T11:44:48.171Z,55.21
2019-04-23T11:47:45.546Z,59.12
2019-04-23T11:50:01.540Z,58.90
2019-04-23T11:52:38.450Z,61.60
2019-04-23T11:55:09.527Z,62.10
2019-04-23T11:57:59.296Z,61.95
2019-04-23T12:03:10.927Z,61.13
2019-04-23T12:06:09.545Z,63.57
2019-04-23T12:09:17.982Z,63.80
2019-04-23T12:22:21.873Z,59.50
2019-04-23T12:25:06.530Z,62.93
2019-04-23T12:27:30.584Z,59.49
2019-04-23T12:29:54.337Z,59.30
2019-04-23T12:35:19.471Z,57.92
2019-04-23T12:37:44.880Z,59.16
2019-04-23T12:40:24.827Z,56.71
2019-04-23T12:45:31.758Z,56.94
2019-04-23T12:48:02.142Z,56.88
2019-04-23T12:58:21.984Z,66.03
2019-04-23T13:00:45.797Z,65.10
2019-04-23T13:05:51.232Z,67.63
2019-04-23T13:08:39.217Z,67.89
2019-04-23T13:11:29.849Z,69.48
2019-04-23T13:13:50.287Z,66.89
2019-04-23T13:16:18.062Z,65.03
2019-04-23T13:18:49.782Z,66.40
2019-04-23T13:21:45.191Z,66.41
2019-04-23T13:24:20.596Z,66.20
2019-04-23T13:26:58.688Z,64.90
2019-04-23T13:29:38.248Z,63.45
2019-04-23T13:31:58.740Z,62.83
2019-04-23T13:34:41.383Z,59.58
2019-04-23T13:37:11.193Z,59.68
2019-04-23T13:39:43.872Z,60.47
2019-04-23T13:42:24.865Z,58.67
2019-04-23T13:45:00.975Z,56.75
2019-04-23T13:47:41.419Z,55.55
2019-04-23T13:50:10.835Z,55.36
2019-04-23T13:52:57.839Z,52.73
2019-04-23T13:55:11.165Z,54.00
2019-04-23T14:00:24.833Z,56.48
2019-04-23T14:02:52.518Z,58.17
2019-04-23T14:05:33.222Z,55.77
2019-04-23T14:08:16.444Z,57.98
2019-04-23T14:10:40.084Z,56.49
2019-04-23T14:21:08.642Z,62.48
2019-04-23T14:23:55.863Z,63.07
2019-04-23T14:34:01.704Z,62.63
2019-04-23T14:39:10.134Z,59.88
2019-04-23T14:41:36.325Z,60.32
2019-04-23T14:46:58.172Z,59.21
2019-04-23T14:49:34.010Z,58.49
2019-04-23T14:52:10.483Z,60.28
2019-04-23T14:55:19.867Z,57.66
2019-04-23T14:57:31.722Z,59.25
2019-04-23T15:00:00.117Z,57.17
2019-04-23T15:02:28.800Z,58.45
2019-04-23T15:05:03.709Z,58.07
2019-04-23T15:07:37.931Z,57.71
2019-04-23T15:10:18.397Z,56.53
2019-04-23T15:12:46.260Z,56.97
2019-04-23T15:17:49.844Z,54.10
2019-04-23T15:23:13.426Z,57.59
2019-04-23T15:26:03.451Z,57.55
2019-04-23T15:27:21.832Z,56.61
2019-04-23T15:30:38.787Z,56.28
2019-04-23T15:33:26.041Z,58.19
2019-04-23T15:36:21.989Z,58.80
2019-04-23T15:38:36.088Z,56.25
2019-04-23T15:41:01.897Z,57.84
2019-04-23T15:43:32.691Z,58.85
2019-04-23T15:46:12.885Z,59.87
2019-04-23T15:48:42.532Z,58.65
2019-04-23T15:51:21.907Z,57.77
2019-04-23T15:53:43.623Z,58.88
2019-04-23T15:56:33.464Z,58.92
2019-04-23T16:03:38.222Z,60.11
2019-04-23T16:06:12.737Z,59.48
2019-04-23T16:09:06.357Z,59.79
2019-04-23T16:14:22.377Z,60.18
2019-04-23T16:17:04.650Z,56.68
2019-04-23T16:19:42.910Z,58.54
2019-04-23T16:22:10.737Z,56.56
2019-04-23T16:24:56.188Z,57.21
2019-04-23T16:27:19.960Z,57.43
2019-04-23T16:35:56.667Z,53.93
2019-04-23T16:41:07.695Z,55.23
2019-04-23T16:43:18.366Z,54.37
2019-04-23T16:46:07.533Z,52.45
2019-04-23T16:48:40.599Z,54.03
2019-04-23T16:53:54.146Z,56.88
2019-04-23T17:01:12.552Z,57.11
2019-04-23T17:03:59.448Z,58.22
2019-04-23T17:06:24.757Z,56.73
2019-04-23T17:08:57.115Z,57.49
2019-04-23T17:14:09.879Z,61.16
2019-04-23T17:19:19.280Z,61.94
2019-04-23T17:21:47.021Z,62.97
2019-04-23T17:24:25.869Z,61.97
2019-04-23T17:27:07.120Z,61.41
2019-04-23T17:29:35.123Z,63.20
2019-04-23T17:32:28.097Z,63.68
2019-04-23T17:35:24.415Z,63.33
2019-04-23T17:37:55.466Z,60.76
2019-04-23T17:40:18.140Z,60.96
2019-04-23T17:43:04.782Z,61.76
2019-04-23T17:45:32.442Z,63.27
2019-04-23T17:48:13.249Z,62.80
2019-04-23T17:50:53.177Z,62.03
2019-04-23T17:56:08.891Z,60.45
2019-04-23T18:06:37.665Z,58.98
2019-04-23T18:11:37.672Z,57.80
2019-04-23T18:14:08.359Z,61.85
2019-04-23T18:16:48.122Z,61.77
2019-04-23T18:19:16.930Z,63.32
2019-04-23T18:22:24.536Z,63.93
2019-04-23T18:25:09.574Z,63.57
2019-04-23T18:27:47.080Z,60.32
2019-04-23T18:30:49.633Z,61.06
2019-04-23T18:35:38.971Z,60.52
2019-04-23T18:41:02.587Z,60.67
2019-04-23T18:48:44.154Z,63.12
2019-04-23T18:51:05.204Z,62.40
2019-04-23T18:56:15.332Z,61.25
2019-04-23T19:01:37.392Z,60.39
2019-04-23T19:04:33.077Z,59.94
2019-04-23T19:06:51.254Z,61.00
2019-04-23T19:10:11.051Z,62.25
2019-04-23T19:15:28.630Z,61.26
2019-04-23T19:20:45.185Z,61.71
2019-04-23T19:25:30.480Z,62.14
2019-04-23T19:28:23.670Z,63.24
2019-04-23T19:33:35.225Z,63.95
2019-04-23T19:38:56.095Z,65.72
2019-04-23T19:41:47.545Z,66.50
2019-04-23T19:49:29.598Z,68.11
2019-04-23T19:51:59.670Z,67.90
2019-04-23T19:57:17.856Z,69.20
2019-04-23T20:02:45.111Z,67.65
2019-04-23T20:04:45.932Z,65.64
2019-04-23T20:09:53.422Z,66.24
2019-04-23T20:12:38.759Z,65.44
2019-04-23T20:15:18.180Z,68.12
2019-04-23T20:17:42.763Z,68.96
2019-04-23T20:20:10.264Z,68.98
2019-04-23T20:22:52.261Z,68.42
2019-04-23T20:28:05.382Z,67.51
2019-04-23T20:31:04.095Z,68.00
2019-04-23T20:34:07.683Z,67.35
2019-04-23T20:36:40.076Z,67.18
2019-04-23T20:39:06.189Z,65.93
2019-04-23T20:42:11.001Z,66.12
2019-04-23T20:49:43.208Z,66.93
2019-04-23T20:52:07.424Z,68.88
2019-04-23T20:54:56.456Z,69.79
2019-04-23T21:00:14.231Z,69.00
2019-04-23T21:08:06.075Z,69.24
2019-04-23T21:10:37.260Z,70.27
2019-04-23T21:13:18.747Z,71.38
2019-04-23T21:18:22.377Z,72.16
2019-04-23T21:20:54.781Z,71.79
2019-04-23T21:23:32.203Z,71.74
2019-04-23T21:25:57.103Z,72.01
2019-04-23T21:31:18.969Z,71.22
2019-04-23T21:34:04.226Z,71.47
2019-04-23T21:36:46.392Z,71.48
2019-04-23T21:42:41.132Z,72.81
2019-04-23T21:45:09.100Z,72.69
2019-04-23T21:47:51.766Z,72.37
2019-04-23T21:50:27.653Z,70.90
2019-04-23T21:55:30.674Z,72.86
2019-04-23T21:58:17.270Z,73.11
2019-04-23T22:00:46.185Z,72.39
2019-04-23T22:03:18.151Z,72.41
2019-04-23T22:05:50.414Z,71.91
2019-04-23T22:08:20.495Z,70.99
2019-04-23T22:10:57.352Z,72.41
2019-04-23T22:13:34.941Z,72.26
2019-04-23T22:16:07.286Z,71.44
2019-04-23T22:18:42.087Z,71.15
2019-04-23T22:21:15.634Z,70.61
2019-04-23T22:23:52.563Z,70.74
2019-04-23T22:26:22.193Z,71.13
2019-04-23T22:28:57.820Z,71.32
2019-04-23T22:31:29.191Z,70.82
2019-04-23T22:34:21.803Z,70.83
2019-04-23T22:36:55.122Z,70.25
2019-04-23T22:39:21.937Z,69.74
2019-04-23T22:44:39.175Z,70.88
2019-04-23T22:47:20.920Z,71.31
2019-04-23T22:55:05.503Z,71.80
2019-04-23T22:57:56.208Z,71.70
2019-04-23T23:00:20.143Z,71.55
2019-04-23T23:03:24.366Z,70.84
2019-04-23T23:08:32.076Z,70.98
2019-04-23T23:11:03.874Z,71.03
2019-04-23T23:16:07.215Z,71.33
2019-04-23T23:18:49.152Z,70.34
2019-04-23T23:21:20.549Z,70.16
2019-04-23T23:23:53.302Z,71.79
2019-04-23T23:26:36.021Z,71.20
2019-04-23T23:29:00.716Z,71.77
2019-04-23T23:31:38.477Z,72.07
2019-04-23T23:34:10.132Z,71.92
2019-04-23T23:36:47.842Z,72.88
2019-04-23T23:41:55.095Z,71.01
2019-04-23T23:44:35.222Z,72.13
2019-04-23T23:47:04.367Z,71.75
2019-04-23T23:49:34.409Z,73.25
2019-04-23T23:54:36.181Z,73.56
